Time;durP1;ratioP1;P1;durP2;ratioP2;P2;SDS_P1;SDS_P2;PMS_P1;PMS_P2;Temp;Humidity;BMP_temperature;BMP_pressure;BME280_temperature;BME280_humidity;BME280_pressure;Samples;Min_cycle;Max_cycle;Signal;HPM_P1;HPM_P2
2022/02/08 00:01:39;;;;;;;21.33;3.40;;;11.00;99.90;;;;;;5072061;28;20238;-66
2022/02/08 00:04:06;;;;;;;13.17;3.10;;;11.00;99.90;;;;;;5083423;28;20193;-64
2022/02/08 00:06:41;;;;;;;17.77;3.70;;;11.00;99.90;;;;;;5061515;28;20187;-65
2022/02/08 00:09:08;;;;;;;13.97;3.70;;;11.00;99.90;;;;;;5075838;28;20213;-64
2022/02/08 00:11:34;;;;;;;16.00;2.90;;;11.00;99.90;;;;;;5102108;28;20212;-65
2022/02/08 00:14:02;;;;;;;13.90;2.70;;;11.10;99.90;;;;;;5085701;28;20189;-64
2022/02/08 00:16:28;;;;;;;23.17;3.83;;;11.10;99.90;;;;;;5097822;28;20278;-64
2022/02/08 00:18:55;;;;;;;14.20;2.50;;;11.10;99.90;;;;;;5092092;28;20472;-66
2022/02/08 00:21:21;;;;;;;15.53;3.17;;;11.10;99.90;;;;;;5064089;28;20186;-66
2022/02/08 00:23:48;;;;;;;22.80;3.30;;;11.10;99.90;;;;;;5081348;28;20536;-65
2022/02/08 00:26:14;;;;;;;19.23;2.93;;;11.00;99.90;;;;;;5086275;28;20816;-65
2022/02/08 00:28:40;;;;;;;19.77;3.37;;;11.10;99.90;;;;;;5072314;28;20345;-64
2022/02/08 00:31:07;;;;;;;13.80;2.40;;;11.10;99.90;;;;;;5066538;28;20268;-64
2022/02/08 00:33:33;;;;;;;20.60;3.67;;;11.00;99.90;;;;;;5070274;28;20233;-67
2022/02/08 00:36:00;;;;;;;18.87;3.13;;;11.00;99.90;;;;;;5085094;28;20352;-67
2022/02/08 00:38:27;;;;;;;21.17;3.13;;;11.10;99.90;;;;;;5084436;28;20190;-66
2022/02/08 00:40:58;;;;;;;24.47;3.87;;;11.10;99.90;;;;;;5082086;28;20184;-65
2022/02/08 00:43:30;;;;;;;19.93;3.30;;;11.10;99.90;;;;;;5081210;28;20192;-65
2022/02/08 00:46:02;;;;;;;22.53;3.37;;;11.00;99.90;;;;;;5083627;28;20197;-65
2022/02/08 00:48:32;;;;;;;20.73;3.53;;;11.00;99.90;;;;;;5084314;28;20856;-65
2022/02/08 00:50:58;;;;;;;13.33;2.70;;;11.00;99.90;;;;;;5068404;28;20599;-64
2022/02/08 00:53:25;;;;;;;15.10;3.27;;;11.00;99.90;;;;;;5071556;28;20571;-64
2022/02/08 00:55:51;;;;;;;19.30;3.20;;;11.00;99.90;;;;;;5066781;28;20306;-65
2022/02/08 00:58:18;;;;;;;19.03;2.87;;;11.00;99.90;;;;;;5066806;28;20260;-64
2022/02/08 01:00:44;;;;;;;20.73;3.10;;;11.00;99.90;;;;;;5086004;28;20205;-64
2022/02/08 01:03:10;;;;;;;12.50;2.80;;;11.00;99.90;;;;;;5083137;28;20187;-67
2022/02/08 01:05:42;;;;;;;19.17;3.07;;;11.00;99.90;;;;;;5075581;28;20642;-64
2022/02/08 01:08:09;;;;;;;19.67;3.43;;;11.00;99.90;;;;;;5070885;28;20198;-65
2022/02/08 01:10:38;;;;;;;17.17;2.90;;;10.90;99.90;;;;;;5083351;28;20182;-64
2022/02/08 01:13:08;;;;;;;22.80;3.30;;;10.90;99.90;;;;;;5071176;28;20245;-65
2022/02/08 01:15:35;;;;;;;17.43;2.77;;;10.90;99.90;;;;;;5068494;28;20678;-65
2022/02/08 01:18:04;;;;;;;22.23;4.23;;;10.90;99.90;;;;;;5088272;28;20177;-63
2022/02/08 01:20:36;;;;;;;16.77;2.60;;;10.90;99.90;;;;;;5068808;28;20729;-65
2022/02/08 01:23:08;;;;;;;17.83;3.07;;;10.90;99.90;;;;;;5084098;28;20756;-64
2022/02/08 01:25:41;;;;;;;24.60;3.50;;;10.90;99.90;;;;;;5085009;28;20185;-66
2022/02/08 01:28:20;;;;;;;19.73;2.90;;;10.90;99.90;;;;;;5084039;28;20194;-65
2022/02/08 01:36:19;;;;;;;10.20;2.60;;;10.90;99.90;;;;;;5069386;28;20315;-64
2022/02/08 01:38:49;;;;;;;24.83;3.47;;;10.90;99.90;;;;;;5082291;28;20682;-64
2022/02/08 01:46:35;;;;;;;21.33;3.47;;;11.00;99.90;;;;;;5071181;28;20195;-65
2022/02/08 01:49:15;;;;;;;21.13;3.00;;;11.00;99.90;;;;;;5098667;28;20530;-65
2022/02/08 01:51:41;;;;;;;15.83;3.43;;;11.00;99.90;;;;;;5066738;28;20186;-66
2022/02/08 01:54:08;;;;;;;14.23;2.80;;;11.00;99.90;;;;;;5082412;28;20331;-63
2022/02/08 01:56:35;;;;;;;15.93;2.77;;;11.00;99.90;;;;;;5075011;28;20210;-65
2022/02/08 01:59:01;;;;;;;13.63;2.87;;;11.10;99.90;;;;;;5080960;28;20667;-65
2022/02/08 02:01:27;;;;;;;15.33;2.80;;;11.00;99.90;;;;;;5085369;28;20891;-66
2022/02/08 02:03:54;;;;;;;15.23;3.27;;;11.10;99.90;;;;;;5086878;28;20190;-65
2022/02/08 02:06:20;;;;;;;20.27;3.20;;;11.10;99.90;;;;;;5085784;28;20864;-65
2022/02/08 02:08:46;;;;;;;11.40;2.97;;;11.00;99.90;;;;;;5076493;28;20888;-65
2022/02/08 02:11:12;;;;;;;25.37;2.80;;;11.00;99.90;;;;;;5067133;28;20175;-65
2022/02/08 02:16:06;;;;;;;14.17;2.60;;;11.00;99.90;;;;;;5076122;28;20308;-64
2022/02/08 02:18:32;;;;;;;15.27;2.47;;;11.00;99.90;;;;;;5085512;28;20231;-64
2022/02/08 02:20:59;;;;;;;11.83;2.60;;;11.00;99.90;;;;;;5066070;28;20194;-64
2022/02/08 02:23:25;;;;;;;18.53;2.73;;;11.00;99.90;;;;;;5066784;28;20175;-64
2022/02/08 02:25:51;;;;;;;13.87;2.50;;;11.00;99.90;;;;;;5065035;28;20183;-66
2022/02/08 02:28:18;;;;;;;18.73;3.30;;;11.10;99.90;;;;;;5077949;28;20182;-67
2022/02/08 02:30:44;;;;;;;15.60;2.60;;;11.10;99.90;;;;;;5067770;28;20252;-68
2022/02/08 02:33:11;;;;;;;17.70;3.00;;;11.10;99.90;;;;;;5070231;28;20741;-66
2022/02/08 02:35:38;;;;;;;24.63;3.23;;;11.10;99.90;;;;;;5081564;28;20217;-65
2022/02/08 02:38:06;;;;;;;20.07;3.33;;;11.10;99.90;;;;;;5066361;28;20179;-65
2022/02/08 02:40:32;;;;;;;18.83;3.77;;;11.20;99.90;;;;;;5085679;28;20178;-66
2022/02/08 02:43:00;;;;;;;18.13;3.60;;;11.30;99.90;;;;;;5086412;28;20197;-66
2022/02/08 02:45:27;;;;;;;15.87;3.47;;;11.30;99.90;;;;;;5086120;28;20190;-66
2022/02/08 02:47:55;;;;;;;20.43;3.30;;;11.40;99.90;;;;;;5080109;28;20187;-65
2022/02/08 02:50:23;;;;;;;14.80;3.17;;;11.40;99.90;;;;;;5075311;28;20200;-66
2022/02/08 02:52:50;;;;;;;16.60;2.90;;;11.40;99.90;;;;;;5074584;28;20178;-65
2022/02/08 02:55:17;;;;;;;16.83;3.17;;;11.50;99.90;;;;;;5065659;28;20786;-65
2022/02/08 02:57:47;;;;;;;22.60;3.37;;;11.40;99.90;;;;;;5083126;28;20214;-66
2022/02/08 03:00:30;;;;;;;18.50;3.30;;;11.40;99.90;;;;;;5086093;28;20190;-64
2022/02/08 03:03:12;;;;;;;18.77;3.90;;;11.50;99.90;;;;;;5070944;28;20710;-64
2022/02/08 03:17:25;;;;;;;14.23;3.10;;;11.50;99.90;;;;;;5063779;28;20191;-66
2022/02/08 03:19:41;;;;;;;11.03;2.80;;;11.50;99.90;;;;;;5062728;28;20190;-68
2022/02/08 03:22:08;;;;;;;17.23;4.07;;;11.50;99.90;;;;;;5063876;28;20570;-65
2022/02/08 03:24:34;;;;;;;21.50;2.80;;;11.50;99.90;;;;;;5080860;28;20285;-65
2022/02/08 03:27:00;;;;;;;19.10;2.63;;;11.50;99.90;;;;;;5081146;28;20205;-64
2022/02/08 03:29:26;;;;;;;22.97;4.07;;;11.50;99.90;;;;;;5085774;28;20268;-65
2022/02/08 03:31:53;;;;;;;18.13;2.93;;;11.50;99.90;;;;;;5077822;28;20694;-64
2022/02/08 03:34:19;;;;;;;17.57;4.40;;;11.50;99.90;;;;;;5074306;28;20199;-65
2022/02/08 03:36:45;;;;;;;19.30;3.63;;;11.50;99.90;;;;;;5063423;28;20256;-64
2022/02/08 03:41:46;;;;;;;18.20;2.97;;;11.60;99.90;;;;;;5085060;28;20242;-65
2022/02/08 03:44:18;;;;;;;20.47;3.50;;;11.60;99.90;;;;;;5066025;28;20726;-65
2022/02/08 03:46:46;;;;;;;11.27;2.73;;;11.60;99.90;;;;;;5065779;28;20830;-65
2022/02/08 03:49:12;;;;;;;16.40;2.57;;;11.60;99.90;;;;;;5065403;28;20194;-65
2022/02/08 03:51:50;;;;;;;20.60;3.30;;;11.60;99.90;;;;;;5077067;28;20237;-67
2022/02/08 03:54:18;;;;;;;21.50;3.50;;;11.60;99.90;;;;;;5077380;28;20194;-65
2022/02/08 03:56:45;;;;;;;18.00;3.17;;;11.50;99.90;;;;;;5065216;28;20249;-65
2022/02/08 03:59:14;;;;;;;22.10;4.27;;;11.50;99.90;;;;;;5081150;28;20817;-65
2022/02/08 04:06:38;;;;;;;18.67;3.33;;;11.50;99.90;;;;;;5083458;28;20536;-63
2022/02/08 04:09:07;;;;;;;20.23;2.97;;;11.50;99.90;;;;;;5081769;28;20222;-67
2022/02/08 04:11:38;;;;;;;15.63;2.67;;;11.40;99.90;;;;;;5079842;28;20289;-66
2022/02/08 04:14:28;;;;;;;14.83;3.00;;;11.40;99.90;;;;;;5068111;28;20190;-66
2022/02/08 04:17:00;;;;;;;11.00;2.97;;;11.40;99.90;;;;;;5063631;28;20571;-66
2022/02/08 04:19:44;;;;;;;18.17;3.13;;;11.40;99.90;;;;;;5084036;28;20178;-65
2022/02/08 04:33:55;;;;;;;15.00;3.10;;;11.30;99.90;;;;;;5023953;28;20218;-65
2022/02/08 04:41:44;;;;;;;21.23;3.37;;;11.40;99.90;;;;;;5082285;28;20229;-65
2022/02/08 04:44:36;;;;;;;19.27;3.20;;;11.40;99.90;;;;;;5074949;28;20183;-64
2022/02/08 04:49:40;;;;;;;24.03;3.10;;;11.40;99.90;;;;;;5083782;28;20664;-65
2022/02/08 04:52:09;;;;;;;19.77;3.30;;;11.40;99.90;;;;;;5075242;28;20198;-64
2022/02/08 04:57:37;;;;;;;20.23;4.00;;;11.30;99.90;;;;;;5050744;28;20226;-65
2022/02/08 05:00:33;;;;;;;20.00;3.43;;;11.30;99.90;;;;;;5083095;28;20329;-65
2022/02/08 05:36:01;;;;;;;19.43;3.23;;;11.30;99.90;;;;;;5083004;28;20210;-66
2022/02/08 05:49:09;;;;;;;26.13;4.20;;;11.50;99.90;;;;;;5071321;28;20269;-67
2022/02/08 05:54:18;;;;;;;16.57;3.67;;;11.60;99.90;;;;;;5084505;28;20186;-65
2022/02/08 05:56:51;;;;;;;20.47;3.20;;;11.70;99.90;;;;;;5080638;28;20301;-64
2022/02/08 05:59:18;;;;;;;19.17;2.90;;;11.70;99.90;;;;;;5066460;28;20179;-65
2022/02/08 06:01:44;;;;;;;25.10;3.07;;;11.80;99.90;;;;;;5070948;28;20277;-65
2022/02/08 06:04:11;;;;;;;22.23;3.40;;;11.80;99.90;;;;;;5086025;28;20586;-64
2022/02/08 06:06:38;;;;;;;18.70;3.43;;;11.80;99.90;;;;;;5073013;28;20653;-64
2022/02/08 06:09:04;;;;;;;17.70;3.43;;;11.80;99.90;;;;;;5055847;28;20536;-65
2022/02/08 06:11:34;;;;;;;19.03;3.03;;;11.80;99.90;;;;;;5067164;28;20218;-66
2022/02/08 06:14:03;;;;;;;20.67;3.13;;;11.90;99.90;;;;;;5073299;28;20199;-65
2022/02/08 06:16:29;;;;;;;19.77;2.87;;;11.90;99.90;;;;;;5065353;28;20713;-64
2022/02/08 06:18:56;;;;;;;14.97;2.93;;;11.90;99.90;;;;;;5065186;28;20183;-64
2022/02/08 06:21:22;;;;;;;18.30;3.20;;;12.00;99.90;;;;;;5082571;28;20196;-64
2022/02/08 06:23:48;;;;;;;17.07;3.10;;;12.00;99.90;;;;;;5072200;28;20186;-66
2022/02/08 06:26:16;;;;;;;17.00;3.07;;;12.00;99.90;;;;;;5065909;28;20198;-66
2022/02/08 06:28:46;;;;;;;23.70;3.00;;;12.00;99.90;;;;;;5070953;28;20313;-64
2022/02/08 06:31:13;;;;;;;18.77;4.30;;;12.00;99.90;;;;;;5065962;28;20175;-66
2022/02/08 06:33:39;;;;;;;19.30;4.00;;;12.10;99.90;;;;;;5069146;28;20210;-65
2022/02/08 06:36:05;;;;;;;18.77;3.00;;;12.10;99.90;;;;;;5055047;28;20252;-65
2022/02/08 06:38:32;;;;;;;20.33;3.00;;;12.20;99.90;;;;;;5081020;28;20235;-65
2022/02/08 06:40:58;;;;;;;16.57;3.03;;;12.30;99.90;;;;;;5070544;28;20182;-64
2022/02/08 06:43:28;;;;;;;18.57;3.10;;;12.30;99.90;;;;;;5083148;28;20675;-66
2022/02/08 06:45:54;;;;;;;16.63;3.17;;;12.30;99.90;;;;;;5072414;28;20194;-63
2022/02/08 06:48:21;;;;;;;23.17;3.33;;;12.40;99.90;;;;;;5065611;28;20201;-65
2022/02/08 06:50:47;;;;;;;18.07;3.30;;;12.50;99.90;;;;;;5075644;28;20435;-65
2022/02/08 06:53:13;;;;;;;17.47;3.33;;;12.60;99.90;;;;;;5084823;28;20706;-66
2022/02/08 06:55:40;;;;;;;21.97;3.20;;;12.60;99.90;;;;;;5073711;28;20294;-64
2022/02/08 06:58:08;;;;;;;14.33;2.70;;;12.60;99.90;;;;;;5067658;28;20824;-65
2022/02/08 07:00:39;;;;;;;20.67;2.73;;;12.60;99.90;;;;;;5066178;28;20186;-66
2022/02/08 07:03:12;;;;;;;15.50;2.43;;;12.60;99.90;;;;;;5085668;28;20219;-66
2022/02/08 07:05:40;;;;;;;20.50;3.33;;;12.50;99.90;;;;;;5065031;28;20252;-64
2022/02/08 07:08:08;;;;;;;15.80;2.40;;;12.50;99.90;;;;;;5068867;28;20191;-65
2022/02/08 07:10:34;;;;;;;13.57;2.40;;;12.50;99.90;;;;;;5094620;28;20931;-65
2022/02/08 07:13:03;;;;;;;19.73;3.03;;;12.50;99.90;;;;;;5065809;28;20552;-65
2022/02/08 07:15:30;;;;;;;10.80;2.23;;;12.50;99.90;;;;;;5080291;28;20270;-66
2022/02/08 07:17:56;;;;;;;16.50;2.73;;;12.60;99.90;;;;;;5070674;28;20826;-64
2022/02/08 07:20:23;;;;;;;20.17;3.47;;;12.60;99.90;;;;;;5071690;28;20205;-66
2022/02/08 07:22:49;;;;;;;15.37;2.90;;;12.60;99.90;;;;;;5064651;28;20194;-64
2022/02/08 07:25:16;;;;;;;23.20;2.60;;;12.60;99.90;;;;;;5065663;28;20676;-65
2022/02/08 07:27:42;;;;;;;15.40;2.67;;;12.60;99.90;;;;;;5071278;28;20194;-65
2022/02/08 07:30:11;;;;;;;13.17;2.27;;;12.50;99.90;;;;;;5068033;28;20674;-65
2022/02/08 07:32:42;;;;;;;16.30;2.90;;;12.60;99.90;;;;;;5080229;28;20216;-64
2022/02/08 07:38:03;;;;;;;11.13;2.20;;;12.80;99.90;;;;;;5071786;28;20219;-67
2022/02/08 07:42:56;;;;;;;14.23;2.93;;;12.80;99.90;;;;;;5068272;28;20929;-68
2022/02/08 07:45:23;;;;;;;12.23;2.73;;;12.80;99.90;;;;;;5064202;28;20663;-65
2022/02/08 07:47:51;;;;;;;18.77;2.93;;;12.90;99.90;;;;;;5064156;28;20217;-67
2022/02/08 07:50:21;;;;;;;13.70;2.43;;;13.10;99.90;;;;;;5075822;28;20552;-65
2022/02/08 07:52:51;;;;;;;14.67;2.60;;;13.20;99.90;;;;;;5068176;28;20527;-67
2022/02/08 07:55:23;;;;;;;16.97;2.97;;;13.20;99.90;;;;;;5077766;28;20187;-65
2022/02/08 07:57:51;;;;;;;14.30;2.77;;;13.30;99.90;;;;;;5064803;28;20221;-64
2022/02/08 08:00:18;;;;;;;15.50;2.93;;;13.40;99.90;;;;;;5079426;28;20204;-65
2022/02/08 08:02:44;;;;;;;11.83;2.60;;;13.50;99.90;;;;;;5057769;28;20189;-65
2022/02/08 08:05:11;;;;;;;10.70;2.30;;;13.60;99.90;;;;;;5072940;28;20607;-66
2022/02/08 08:07:37;;;;;;;16.60;2.70;;;13.60;99.90;;;;;;5074458;28;20195;-66
2022/02/08 08:10:06;;;;;;;14.13;2.40;;;13.50;99.90;;;;;;5072249;28;20193;-66
2022/02/08 08:12:35;;;;;;;18.47;2.47;;;13.40;99.90;;;;;;5076016;28;20600;-67
2022/02/08 08:15:11;;;;;;;13.73;3.00;;;13.30;99.90;;;;;;5063683;28;20292;-67
2022/02/08 08:17:54;;;;;;;19.67;2.83;;;13.30;99.90;;;;;;5077529;28;20216;-64
2022/02/08 08:20:20;;;;;;;14.10;2.47;;;13.20;99.90;;;;;;5071568;28;20225;-65
2022/02/08 08:22:47;;;;;;;11.40;2.50;;;13.30;99.90;;;;;;5069493;28;20296;-64
2022/02/08 08:25:14;;;;;;;16.40;2.67;;;13.40;99.90;;;;;;5070389;28;20185;-66
2022/02/08 08:27:41;;;;;;;11.60;2.83;;;13.40;99.90;;;;;;5091237;28;20186;-67
2022/02/08 08:30:09;;;;;;;13.40;2.53;;;13.50;99.90;;;;;;5077435;28;20243;-66
2022/02/08 08:32:42;;;;;;;11.90;3.03;;;13.50;99.90;;;;;;5078390;28;20270;-66
2022/02/08 08:35:11;;;;;;;10.90;2.63;;;13.50;99.90;;;;;;5077748;28;20197;-66
2022/02/08 08:37:42;;;;;;;13.93;2.47;;;13.50;99.90;;;;;;5083176;28;20295;-66
2022/02/08 08:40:22;;;;;;;17.40;2.60;;;13.60;99.90;;;;;;5079046;28;20743;-65
2022/02/08 08:48:44;;;;;;;14.93;2.73;;;13.70;99.90;;;;;;5077297;28;20179;-66
2022/02/08 08:51:32;;;;;;;14.20;2.80;;;13.70;99.90;;;;;;5077710;28;20190;-66
2022/02/08 08:53:58;;;;;;;14.67;3.27;;;13.70;99.90;;;;;;5078050;28;20217;-65
2022/02/08 08:56:26;;;;;;;9.53;2.60;;;13.70;99.90;;;;;;5078611;28;20210;-66
2022/02/08 08:58:53;;;;;;;14.57;2.63;;;13.70;99.90;;;;;;5077496;28;20677;-65
2022/02/08 09:01:19;;;;;;;13.83;3.03;;;13.70;99.90;;;;;;5093971;28;20266;-65
2022/02/08 09:03:48;;;;;;;13.73;2.80;;;13.80;99.90;;;;;;5079633;28;20289;-65
2022/02/08 09:06:14;;;;;;;15.60;2.87;;;13.90;99.90;;;;;;5083009;28;20190;-65
2022/02/08 09:08:42;;;;;;;17.50;2.23;;;14.00;99.90;;;;;;5077279;28;20233;-64
2022/02/08 09:16:38;;;;;;;12.50;2.57;;;14.00;99.90;;;;;;5074700;28;20264;-67
2022/02/08 09:29:05;;;;;;;14.67;2.37;;;14.30;99.90;;;;;;5077994;28;20662;-66
2022/02/08 09:31:33;;;;;;;14.33;2.60;;;14.30;99.90;;;;;;5077121;28;20190;-66
2022/02/08 09:33:59;;;;;;;14.30;2.53;;;14.30;99.90;;;;;;5073754;28;20245;-67
2022/02/08 09:36:26;;;;;;;14.17;2.53;;;14.30;99.90;;;;;;5081651;28;20206;-66
2022/02/08 09:38:54;;;;;;;10.83;2.47;;;14.30;99.90;;;;;;5072069;28;20205;-64
2022/02/08 09:41:24;;;;;;;12.57;2.50;;;14.20;99.90;;;;;;5077472;28;20194;-65
2022/02/08 09:43:51;;;;;;;12.43;2.70;;;14.20;99.90;;;;;;5078196;28;20191;-66
2022/02/08 09:46:19;;;;;;;14.90;2.30;;;14.30;99.90;;;;;;5078475;28;20477;-65
2022/02/08 09:48:53;;;;;;;11.87;1.90;;;14.30;99.90;;;;;;5077219;28;20698;-65
2022/02/08 09:51:19;;;;;;;13.00;2.30;;;14.30;99.90;;;;;;5073392;28;20202;-64
2022/02/08 09:53:46;;;;;;;15.83;2.10;;;14.40;99.90;;;;;;5076143;28;20198;-68
2022/02/08 09:56:14;;;;;;;11.63;2.63;;;14.50;99.90;;;;;;5062423;28;20495;-64
2022/02/08 09:58:41;;;;;;;14.10;2.83;;;14.60;99.90;;;;;;5063932;28;20639;-66
2022/02/08 10:01:18;;;;;;;16.63;2.60;;;14.80;99.90;;;;;;5071074;28;20218;-65
2022/02/08 10:03:56;;;;;;;12.53;2.40;;;14.70;99.90;;;;;;5074157;28;20269;-67
2022/02/08 10:06:27;;;;;;;12.60;2.40;;;14.60;99.90;;;;;;5069992;28;20190;-67
2022/02/08 10:09:09;;;;;;;15.90;2.73;;;14.60;99.90;;;;;;5071238;28;20198;-63
2022/02/08 10:11:53;;;;;;;19.17;2.60;;;14.70;99.90;;;;;;5074528;28;20186;-65
2022/02/08 10:14:26;;;;;;;16.73;3.03;;;14.80;99.90;;;;;;5071684;28;20248;-67
2022/02/08 10:22:20;;;;;;;11.50;2.13;;;15.30;99.90;;;;;;5071472;28;20292;-65
2022/02/08 10:24:50;;;;;;;11.43;2.17;;;15.30;99.90;;;;;;5076938;28;20294;-66
2022/02/08 10:27:32;;;;;;;16.70;2.80;;;15.40;99.90;;;;;;5073281;28;20187;-64
2022/02/08 10:38:08;;;;;;;13.40;2.53;;;15.60;99.90;;;;;;5068797;28;20210;-63
2022/02/08 10:40:38;;;;;;;13.63;2.97;;;15.50;99.90;;;;;;5076264;28;20808;-66
2022/02/08 10:43:08;;;;;;;15.07;2.60;;;15.90;99.90;;;;;;5093112;28;20935;-65
2022/02/08 10:45:38;;;;;;;10.70;2.07;;;16.40;99.90;;;;;;5073626;28;20232;-65
2022/02/08 10:48:11;;;;;;;8.90;1.90;;;16.40;99.90;;;;;;5065635;28;20201;-65
2022/02/08 10:50:44;;;;;;;11.23;2.07;;;16.00;99.90;;;;;;5072863;28;20663;-63
2022/02/08 10:53:12;;;;;;;14.07;2.60;;;16.00;99.90;;;;;;5065123;28;20255;-66
2022/02/08 10:58:33;;;;;;;14.47;2.33;;;17.10;99.90;;;;;;5070661;28;20198;-64
2022/02/08 11:01:16;;;;;;;13.10;2.30;;;17.70;99.90;;;;;;5068109;28;20692;-65
2022/02/08 11:03:58;;;;;;;15.57;2.57;;;18.10;99.90;;;;;;5073435;28;21004;-65
2022/02/08 11:07:11;;;;;;;10.33;2.40;;;18.40;99.90;;;;;;5089006;28;20186;-64
2022/02/08 11:09:41;;;;;;;11.80;2.13;;;18.40;99.90;;;;;;5067620;28;20198;-65
2022/02/08 11:12:31;;;;;;;15.37;2.10;;;18.10;99.90;;;;;;5066353;28;20194;-68
2022/02/08 11:15:05;;;;;;;13.73;2.30;;;17.80;99.90;;;;;;5064783;28;20194;-67
2022/02/08 11:20:44;;;;;;;13.70;2.50;;;17.30;99.90;;;;;;5064212;28;20839;-67
2022/02/08 11:24:07;;;;;;;9.00;2.27;;;17.20;99.90;;;;;;5070271;28;20221;-65
2022/02/08 11:26:07;;;;;;;9.37;2.23;;;16.90;99.90;;;;;;5070385;28;20226;-64
2022/02/08 11:28:44;;;;;;;13.27;2.37;;;16.90;99.90;;;;;;5068440;28;20195;-63
2022/02/08 11:31:32;;;;;;;11.37;2.33;;;16.80;99.90;;;;;;5063406;28;20224;-65
2022/02/08 11:56:22;;;;;;;18.03;3.07;;;16.30;99.90;;;;;;5084863;28;20186;-67
2022/02/08 12:50:56;;;;;;;12.80;2.73;;;14.70;99.90;;;;;;5063564;28;20619;-63
2022/02/08 12:56:15;;;;;;;18.77;3.10;;;14.60;99.90;;;;;;5064075;28;20194;-63
2022/02/08 13:14:14;;;;;;;14.23;3.33;;;14.50;99.90;;;;;;5079994;28;20278;-64
2022/02/08 14:01:51;;;;;;;20.67;5.13;;;14.10;99.90;;;;;;5069422;28;20285;-65
2022/02/08 14:07:16;;;;;;;18.20;5.30;;;14.10;99.90;;;;;;5070092;28;20198;-64
2022/02/08 14:09:58;;;;;;;20.53;5.17;;;14.10;99.90;;;;;;5069406;28;20186;-65
2022/02/08 14:13:01;;;;;;;17.07;4.73;;;14.00;99.90;;;;;;5068265;28;20277;-65
2022/02/08 14:17:59;;;;;;;24.23;7.97;;;14.00;99.90;;;;;;5069783;28;20218;-63
2022/02/08 14:23:25;;;;;;;19.20;6.63;;;13.90;99.90;;;;;;5069761;28;20178;-66
2022/02/08 14:29:02;;;;;;;22.40;5.93;;;13.80;99.90;;;;;;5076535;28;20647;-64
2022/02/08 15:09:10;;;;;;;23.50;7.37;;;13.60;99.90;;;;;;5078534;28;20190;-63
2022/02/08 15:11:57;;;;;;;20.37;7.20;;;13.60;99.90;;;;;;5072657;28;20206;-66
2022/02/08 15:14:26;;;;;;;21.30;7.27;;;13.50;99.90;;;;;;5080079;28;20836;-66
2022/02/08 15:16:53;;;;;;;26.80;7.47;;;13.50;99.90;;;;;;5075526;28;20252;-65
2022/02/08 15:19:19;;;;;;;33.13;7.37;;;13.50;99.90;;;;;;5069885;28;20183;-65
2022/02/08 15:21:46;;;;;;;23.80;7.13;;;13.50;99.90;;;;;;5068349;28;20198;-66
2022/02/08 15:24:14;;;;;;;19.70;6.70;;;13.40;99.90;;;;;;5075275;28;20781;-64
2022/02/08 15:26:47;;;;;;;26.00;7.17;;;13.50;99.90;;;;;;5067579;28;20240;-66
2022/02/08 15:29:16;;;;;;;21.23;6.80;;;13.40;99.90;;;;;;5071137;28;20194;-66
2022/02/08 15:31:42;;;;;;;27.20;7.00;;;13.40;99.90;;;;;;5073777;28;20293;-64
2022/02/08 15:34:09;;;;;;;27.97;7.33;;;13.40;99.90;;;;;;5073185;28;20225;-65
2022/02/08 15:36:35;;;;;;;25.47;6.83;;;13.30;99.90;;;;;;5068687;28;20218;-66
2022/02/08 15:39:07;;;;;;;32.13;8.23;;;13.30;99.90;;;;;;5078655;28;20194;-67
2022/02/08 15:41:38;;;;;;;28.80;6.57;;;13.40;99.90;;;;;;5072936;28;20885;-66
2022/02/08 15:44:17;;;;;;;16.37;5.60;;;13.40;99.90;;;;;;5079724;28;20183;-66
2022/02/08 15:46:45;;;;;;;28.40;6.70;;;13.30;99.90;;;;;;5067337;28;20197;-66
2022/02/08 15:49:13;;;;;;;20.60;6.80;;;13.30;99.90;;;;;;5069168;28;20194;-64
2022/02/08 15:51:44;;;;;;;23.53;6.57;;;13.30;99.90;;;;;;5066056;28;20294;-65
2022/02/08 15:54:35;;;;;;;19.83;6.67;;;13.30;99.90;;;;;;5069175;28;20966;-65
2022/02/08 16:05:32;;;;;;;29.20;6.63;;;13.30;99.90;;;;;;5072381;28;20198;-65
2022/02/08 16:07:58;;;;;;;18.90;6.43;;;13.30;99.90;;;;;;5068759;28;20194;-65
2022/02/08 16:10:34;;;;;;;26.40;6.93;;;13.30;99.90;;;;;;5068141;28;20666;-65
2022/02/08 16:13:29;;;;;;;27.00;6.03;;;13.30;99.90;;;;;;5063061;28;20228;-64
2022/02/08 16:18:46;;;;;;;21.10;6.73;;;13.40;99.90;;;;;;5079112;28;20297;-64
2022/02/08 16:27:01;;;;;;;28.23;7.77;;;13.40;99.90;;;;;;5069537;28;20801;-65
2022/02/08 16:59:39;;;;;;;23.13;5.60;;;13.30;99.90;;;;;;5074773;28;20182;-64
2022/02/08 17:02:08;;;;;;;26.00;6.23;;;13.20;99.90;;;;;;5075010;28;20190;-63
2022/02/08 17:04:37;;;;;;;19.60;5.20;;;13.30;99.90;;;;;;5071796;28;20212;-65
2022/02/08 17:07:04;;;;;;;23.67;5.33;;;13.20;99.90;;;;;;5085333;28;20186;-65
2022/02/08 17:12:08;;;;;;;25.47;4.87;;;13.20;99.90;;;;;;5068841;28;20496;-64
2022/02/08 17:15:09;;;;;;;23.17;5.13;;;13.20;99.90;;;;;;5079294;28;20593;-67
2022/02/08 17:47:45;;;;;;;20.47;4.87;;;13.10;99.90;;;;;;5052992;28;20260;-65
2022/02/08 17:50:15;;;;;;;17.03;4.27;;;13.10;99.90;;;;;;5077656;28;20198;-66
2022/02/08 17:52:46;;;;;;;17.87;4.00;;;13.10;99.90;;;;;;5082546;28;20178;-64
2022/02/08 17:55:15;;;;;;;20.13;4.47;;;13.10;99.90;;;;;;5069545;28;20605;-66
2022/02/08 17:57:42;;;;;;;27.33;3.87;;;13.00;99.90;;;;;;5074655;28;20221;-64
2022/02/08 18:00:14;;;;;;;21.00;4.70;;;13.00;99.90;;;;;;5068882;28;20187;-66
2022/02/08 18:02:44;;;;;;;20.20;3.70;;;13.00;99.90;;;;;;5076715;28;20659;-64
2022/02/08 18:05:12;;;;;;;23.70;4.33;;;13.00;99.90;;;;;;5074523;28;20663;-63
2022/02/08 18:07:39;;;;;;;28.23;4.37;;;13.00;99.90;;;;;;5080035;28;20281;-65
2022/02/08 18:10:12;;;;;;;27.57;4.60;;;13.00;99.90;;;;;;5071201;28;20281;-65
2022/02/08 18:12:43;;;;;;;30.67;4.77;;;13.00;99.90;;;;;;5073165;28;20699;-66
2022/02/08 18:15:13;;;;;;;26.90;3.80;;;12.90;99.90;;;;;;5087374;28;20243;-65
2022/02/08 18:17:48;;;;;;;20.33;3.80;;;12.90;99.90;;;;;;5079563;28;20214;-65
2022/02/08 19:03:20;;;;;;;17.63;3.23;;;12.60;99.90;;;;;;5070325;28;20228;-64
2022/02/08 19:19:40;;;;;;;17.13;4.23;;;12.40;99.90;;;;;;5070408;28;20202;-65
2022/02/08 19:22:05;;;;;;;23.43;4.30;;;12.40;99.90;;;;;;5077560;28;20182;-64
2022/02/08 19:24:32;;;;;;;25.10;3.70;;;12.40;99.90;;;;;;5075546;28;20193;-66
2022/02/08 19:27:01;;;;;;;18.60;4.00;;;12.40;99.90;;;;;;5075249;28;20226;-63
2022/02/08 19:29:33;;;;;;;25.93;3.37;;;12.40;99.90;;;;;;5081605;28;20191;-64
2022/02/08 19:32:00;;;;;;;28.60;4.87;;;12.50;99.90;;;;;;5078863;28;20229;-63
2022/02/08 19:34:27;;;;;;;23.13;3.50;;;12.40;99.90;;;;;;5064381;28;20886;-65
2022/02/08 19:36:57;;;;;;;25.37;3.57;;;12.50;99.90;;;;;;5080169;28;20214;-69
2022/02/08 19:39:25;;;;;;;20.20;3.57;;;12.50;99.90;;;;;;5083100;28;20629;-64
2022/02/08 19:41:52;;;;;;;33.80;5.40;;;12.50;99.90;;;;;;5072791;28;20199;-64
2022/02/08 19:44:21;;;;;;;29.07;4.50;;;12.50;99.90;;;;;;5068197;28;20214;-64
2022/02/08 19:46:47;;;;;;;29.13;4.10;;;12.60;99.90;;;;;;5082222;28;20251;-63
2022/02/08 19:49:14;;;;;;;23.27;4.10;;;12.50;99.90;;;;;;5074152;28;20202;-66
2022/02/08 19:51:41;;;;;;;17.07;3.03;;;12.50;99.90;;;;;;5075822;28;20198;-65
2022/02/08 19:54:13;;;;;;;32.30;4.57;;;12.50;99.90;;;;;;5072700;28;20587;-65
2022/02/08 19:56:48;;;;;;;22.83;4.13;;;12.50;99.90;;;;;;5071770;28;20214;-67
2022/02/08 19:59:20;;;;;;;18.60;3.77;;;12.50;99.90;;;;;;5074302;28;20581;-67
2022/02/08 20:01:53;;;;;;;21.90;3.83;;;12.50;99.90;;;;;;5078521;28;20178;-65
2022/02/08 20:04:22;;;;;;;24.57;4.00;;;12.50;99.90;;;;;;5068414;28;20182;-67
2022/02/08 20:06:49;;;;;;;14.07;2.97;;;12.40;99.90;;;;;;5064167;28;20186;-66
2022/02/08 20:09:16;;;;;;;22.33;3.53;;;12.40;99.90;;;;;;5085553;28;20205;-68
2022/02/08 20:11:44;;;;;;;27.63;3.40;;;12.50;99.90;;;;;;5076199;28;20251;-67
2022/02/08 20:14:14;;;;;;;26.13;4.30;;;12.50;99.90;;;;;;5084505;28;20247;-65
2022/02/08 20:16:41;;;;;;;21.30;3.43;;;12.50;99.90;;;;;;5078530;28;20225;-67
2022/02/08 20:19:12;;;;;;;20.63;4.00;;;12.50;99.90;;;;;;5078151;28;20201;-66
2022/02/08 20:21:39;;;;;;;23.63;4.63;;;12.50;99.90;;;;;;5065818;28;20650;-66
2022/02/08 20:24:11;;;;;;;23.77;4.57;;;12.40;99.90;;;;;;5066658;28;20669;-67
2022/02/08 20:29:23;;;;;;;25.33;3.47;;;12.40;99.90;;;;;;5079014;28;20674;-66
2022/02/08 20:31:55;;;;;;;28.63;4.20;;;12.40;99.90;;;;;;5074684;28;20285;-65
2022/02/08 20:34:27;;;;;;;28.50;3.93;;;12.50;99.90;;;;;;5074164;28;20659;-66
2022/02/08 20:36:55;;;;;;;23.20;4.37;;;12.40;99.90;;;;;;5068604;28;20230;-68
2022/02/08 20:39:22;;;;;;;16.10;4.17;;;12.40;99.90;;;;;;5052467;28;20218;-65
2022/02/08 20:41:49;;;;;;;25.27;3.93;;;12.40;99.90;;;;;;5073772;28;20582;-67
2022/02/08 20:44:17;;;;;;;25.00;3.90;;;12.40;99.90;;;;;;5066632;28;20667;-68
2022/02/08 20:47:02;;;;;;;24.10;3.97;;;12.40;99.90;;;;;;5076603;28;20194;-67